Time,TemperatureF,DewpointF,PressureIn,WindDirection,WindDirectionDegrees,WindSpeedMPH,WindSpeedGustMPH,Humidity,HourlyPrecipIn,Conditions,Clouds,dailyrainin,SoftwareType,DateUTC
2013-06-04 00:11:00,67.9,34.0,29.75,SW,232,7.0,-999.0,29,-99.99,,,0.00,weatherlink.com 1.10,2013-06-04 07:11:00,
2013-06-04 00:26:00,67.8,38.0,29.74,SW,235,3.0,-999.0,34,-99.99,,,0.00,weatherlink.com 1.10,2013-06-04 07:26:00,
2013-06-04 00:41:00,67.4,39.0,29.74,SW,232,1.0,-999.0,36,-99.99,,,0.00,weatherlink.com 1.10,2013-06-04 07:41:00,
2013-06-04 00:56:00,66.4,39.0,29.74,SW,218,5.0,-999.0,37,-99.99,,,0.00,weatherlink.com 1.10,2013-06-04 07:56:00,
2013-06-04 01:12:00,65.3,41.0,29.74,SW,217,0.0,-999.0,41,-99.99,,,0.00,weatherlink.com 1.10,2013-06-04 08:12:00,
2013-06-04 01:27:00,64.8,42.0,29.75,SW,217,0.0,-999.0,43,-99.99,,,0.00,weatherlink.com 1.10,2013-06-04 08:27:00,
2013-06-04 01:42:00,64.3,42.0,29.75,SSW,211,0.0,-999.0,44,-99.99,,,0.00,weatherlink.com 1.10,2013-06-04 08:42:00,
2013-06-04 01:57:00,64.0,41.0,29.75,SSW,211,0.0,-999.0,44,-99.99,,,0.00,weatherlink.com 1.10,2013-06-04 08:57:00,
2013-06-04 02:12:00,63.5,40.0,29.74,SSW,211,0.0,-999.0,42,-99.99,,,0.00,weatherlink.com 1.10,2013-06-04 09:12:00,
2013-06-04 02:27:00,63.2,38.0,29.74,SSW,211,0.0,-999.0,40,-99.99,,,0.00,weatherlink.com 1.10,2013-06-04 09:27:00,
2013-06-04 02:42:00,62.9,38.0,29.74,SSW,211,0.0,-999.0,40,-99.99,,,0.00,weatherlink.com 1.10,2013-06-04 09:42:00,
2013-06-04 02:57:00,62.4,36.0,29.75,SSW,211,0.0,-999.0,38,-99.99,,,0.00,weatherlink.com 1.10,2013-06-04 09:57:00,
2013-06-04 03:12:00,62.1,36.0,29.76,SSW,211,0.0,-999.0,38,-99.99,,,0.00,weatherlink.com 1.10,2013-06-04 10:12:00,
2013-06-04 03:27:00,61.6,36.0,29.76,SSW,212,0.0,-999.0,38,-99.99,,,0.00,weatherlink.com 1.10,2013-06-04 10:27:00,
2013-06-04 03:42:00,60.9,36.0,29.76,SSW,212,0.0,-999.0,39,-99.99,,,0.00,weatherlink.com 1.10,2013-06-04 10:42:00,
2013-06-04 03:57:00,60.5,36.0,29.76,SSW,212,0.0,-999.0,40,-99.99,,,0.00,weatherlink.com 1.10,2013-06-04 10:57:00,
2013-06-04 04:13:00,60.1,36.0,29.76,SSW,212,0.0,-999.0,41,-99.99,,,0.00,weatherlink.com 1.10,2013-06-04 11:13:00,
2013-06-04 04:28:00,59.9,37.0,29.77,SSW,212,0.0,-999.0,42,-99.99,,,0.00,weatherlink.com 1.10,2013-06-04 11:28:00,
2013-06-04 04:43:00,59.8,36.0,29.77,SSW,212,0.0,-999.0,41,-99.99,,,0.00,weatherlink.com 1.10,2013-06-04 11:43:00,
2013-06-04 04:58:00,59.5,37.0,29.77,SSW,212,0.0,-999.0,43,-99.99,,,0.00,weatherlink.com 1.10,2013-06-04 11:58:00,
2013-06-04 05:13:00,59.3,37.0,29.77,SSW,212,0.0,-999.0,44,-99.99,,,0.00,weatherlink.com 1.10,2013-06-04 12:13:00,
2013-06-04 05:28:00,59.2,38.0,29.77,SSW,212,0.0,-999.0,45,-99.99,,,0.00,weatherlink.com 1.10,2013-06-04 12:28:00,
2013-06-04 05:43:00,58.9,37.0,29.77,SSW,212,0.0,-999.0,44,-99.99,,,0.00,weatherlink.com 1.10,2013-06-04 12:43:00,
2013-06-04 05:58:00,58.9,38.0,29.77,SSW,212,0.0,-999.0,47,-99.99,,,0.00,weatherlink.com 1.10,2013-06-04 12:58:00,
2013-06-04 06:13:00,60.4,39.0,29.78,South,187,2.0,-999.0,46,-99.99,,,0.00,weatherlink.com 1.10,2013-06-04 13:13:00,
2013-06-04 06:28:00,61.3,40.0,29.78,South,189,3.0,-999.0,45,-99.99,,,0.00,weatherlink.com 1.10,2013-06-04 13:28:00,
2013-06-04 06:43:00,62.9,40.0,29.79,South,188,1.0,-999.0,44,-99.99,,,0.00,weatherlink.com 1.10,2013-06-04 13:43:00,
2013-06-04 06:59:00,65.3,40.0,29.79,SW,219,0.0,-999.0,40,-99.99,,,0.00,weatherlink.com 1.10,2013-06-04 13:59:00,
2013-06-04 07:14:00,66.8,41.0,29.78,SSW,207,2.0,-999.0,39,-99.99,,,0.00,weatherlink.com 1.10,2013-06-04 14:14:00,
2013-06-04 07:29:00,68.4,41.0,29.79,SSW,202,3.0,-999.0,37,-99.99,,,0.00,weatherlink.com 1.10,2013-06-04 14:29:00,
2013-06-04 07:44:00,69.9,41.0,29.79,SSW,201,6.0,-999.0,35,-99.99,,,0.00,weatherlink.com 1.10,2013-06-04 14:44:00,
2013-06-04 07:59:00,72.1,41.0,29.79,SSW,193,5.0,-999.0,32,-99.99,,,0.00,weatherlink.com 1.10,2013-06-04 14:59:00,
2013-06-04 08:14:00,73.5,41.0,29.79,South,186,5.0,-999.0,31,-99.99,,,0.00,weatherlink.com 1.10,2013-06-04 15:14:00,
2013-06-04 08:29:00,75.8,40.0,29.79,SW,221,7.0,-999.0,28,-99.99,,,0.00,weatherlink.com 1.10,2013-06-04 15:29:00,
2013-06-04 08:44:00,76.7,40.0,29.79,SSW,193,6.0,-999.0,27,-99.99,,,0.00,weatherlink.com 1.10,2013-06-04 15:44:00,
2013-06-04 08:59:00,78.1,40.0,29.79,South,178,6.0,-999.0,25,-99.99,,,0.00,weatherlink.com 1.10,2013-06-04 15:59:00,
2013-06-04 09:14:00,79.4,40.0,29.79,South,174,8.0,-999.0,24,-99.99,,,0.00,weatherlink.com 1.10,2013-06-04 16:14:00,
2013-06-04 09:30:00,80.3,40.0,29.79,South,171,4.0,-999.0,24,-99.99,,,0.00,weatherlink.com 1.10,2013-06-04 16:30:00,
2013-06-04 09:45:00,81.2,41.0,29.79,South,189,2.0,-999.0,24,-99.99,,,0.00,weatherlink.com 1.10,2013-06-04 16:45:00,
2013-06-04 10:00:00,82.2,41.0,29.78,SSE,165,5.0,-999.0,23,-99.99,,,0.00,weatherlink.com 1.10,2013-06-04 17:00:00,
2013-06-04 10:15:00,83.6,41.0,29.78,South,190,9.0,-999.0,22,-99.99,,,0.00,weatherlink.com 1.10,2013-06-04 17:15:00,
2013-06-04 10:30:00,83.8,40.0,29.79,South,182,6.0,-999.0,21,-99.99,,,0.00,weatherlink.com 1.10,2013-06-04 17:30:00,
2013-06-04 10:45:00,84.7,39.0,29.78,SSE,161,6.0,-999.0,20,-99.99,,,0.00,weatherlink.com 1.10,2013-06-04 17:45:00,
2013-06-04 11:00:00,85.5,37.0,29.78,South,173,2.0,-999.0,18,-99.99,,,0.00,weatherlink.com 1.10,2013-06-04 18:00:00,
2013-06-04 11:15:00,87.2,34.0,29.78,SSE,165,7.0,-999.0,15,-99.99,,,0.00,weatherlink.com 1.10,2013-06-04 18:15:00,
2013-06-04 11:30:00,87.0,30.0,29.79,South,171,5.0,-999.0,13,-99.99,,,0.00,weatherlink.com 1.10,2013-06-04 18:30:00,
2013-06-04 11:45:00,88.2,29.0,29.78,South,173,7.0,-999.0,12,-99.99,,,0.00,weatherlink.com 1.10,2013-06-04 18:45:00,
2013-06-04 12:01:00,89.3,28.0,29.78,SSW,192,10.0,-999.0,11,-99.99,,,0.00,weatherlink.com 1.10,2013-06-04 19:01:00,
2013-06-04 12:16:00,89.3,34.0,29.78,South,181,0.0,-999.0,14,-99.99,,,0.00,weatherlink.com 1.10,2013-06-04 19:16:00,
2013-06-04 12:31:00,89.3,32.0,29.77,South,177,8.0,-999.0,13,-99.99,,,0.00,weatherlink.com 1.10,2013-06-04 19:31:00,
2013-06-04 12:46:00,89.9,31.0,29.77,South,182,14.0,-999.0,12,-99.99,,,0.00,weatherlink.com 1.10,2013-06-04 19:46:00,
2013-06-04 13:01:00,90.5,27.0,29.77,South,183,13.0,-999.0,10,-99.99,,,0.00,weatherlink.com 1.10,2013-06-04 20:01:00,
2013-06-04 13:31:00,90.1,27.0,29.77,SSW,192,14.0,-999.0,10,-99.99,,,0.00,weatherlink.com 1.10,2013-06-04 20:31:00,
2013-06-04 13:46:00,90.7,24.0,29.77,SSW,197,11.0,-999.0,9,-99.99,,,0.00,weatherlink.com 1.10,2013-06-04 20:46:00,
2013-06-04 14:01:00,91.8,25.0,29.77,South,181,19.0,-999.0,9,-99.99,,,0.00,weatherlink.com 1.10,2013-06-04 21:01:00,
2013-06-04 14:16:00,91.0,22.0,29.77,South,170,9.0,-999.0,8,-99.99,,,0.00,weatherlink.com 1.10,2013-06-04 21:16:00,
2013-06-04 14:31:00,91.4,25.0,29.77,South,182,19.0,-999.0,9,-99.99,,,0.00,weatherlink.com 1.10,2013-06-04 21:31:00,
2013-06-04 14:47:00,91.2,27.0,29.77,SSE,158,14.0,-999.0,10,-99.99,,,0.00,weatherlink.com 1.10,2013-06-04 21:47:00,
2013-06-04 15:02:00,91.2,30.0,29.77,South,186,12.0,-999.0,11,-99.99,,,0.00,weatherlink.com 1.10,2013-06-04 22:02:00,
2013-06-04 15:17:00,91.4,34.0,29.77,SSW,194,21.0,-999.0,13,-99.99,,,0.00,weatherlink.com 1.10,2013-06-04 22:17:00,
2013-06-04 15:32:00,90.1,35.0,29.77,South,189,16.0,-999.0,14,-99.99,,,0.00,weatherlink.com 1.10,2013-06-04 22:32:00,
2013-06-04 15:47:00,90.1,33.0,29.77,South,180,21.0,-999.0,13,-99.99,,,0.00,weatherlink.com 1.10,2013-06-04 22:47:00,
2013-06-04 16:02:00,89.5,33.0,29.77,South,185,11.0,-999.0,13,-99.99,,,0.00,weatherlink.com 1.10,2013-06-04 23:02:00,
2013-06-04 16:17:00,88.2,33.0,29.77,SSW,202,20.0,-999.0,14,-99.99,,,0.00,weatherlink.com 1.10,2013-06-04 23:17:00,
2013-06-04 16:32:00,87.4,37.0,29.77,SSW,199,22.0,-999.0,17,-99.99,,,0.00,weatherlink.com 1.10,2013-06-04 23:32:00,
2013-06-04 16:47:00,87.2,40.0,29.78,South,184,24.0,-999.0,19,-99.99,,,0.00,weatherlink.com 1.10,2013-06-04 23:47:00,
2013-06-04 17:02:00,86.5,40.0,29.78,SW,225,16.0,-999.0,19,-99.99,,,0.00,weatherlink.com 1.10,2013-06-05 00:02:00,
2013-06-04 17:17:00,87.2,40.0,29.78,SW,217,18.0,-999.0,19,-99.99,,,0.00,weatherlink.com 1.10,2013-06-05 00:17:00,
2013-06-04 17:32:00,86.3,39.0,29.78,SSW,194,18.0,-999.0,19,-99.99,,,0.00,weatherlink.com 1.10,2013-06-05 00:32:00,
2013-06-04 17:47:00,86.3,39.0,29.78,South,181,14.0,-999.0,19,-99.99,,,0.00,weatherlink.com 1.10,2013-06-05 00:47:00,
2013-06-04 18:02:00,85.1,37.0,29.79,SW,219,18.0,-999.0,18,-99.99,,,0.00,weatherlink.com 1.10,2013-06-05 01:02:00,
2013-06-04 18:18:00,84.5,37.0,29.77,SSW,194,20.0,-999.0,18,-99.99,,,0.00,weatherlink.com 1.10,2013-06-05 01:18:00,
2013-06-04 18:33:00,83.8,39.0,29.78,South,188,15.0,-999.0,20,-99.99,,,0.00,weatherlink.com 1.10,2013-06-05 01:33:00,
2013-06-04 18:48:00,82.4,39.0,29.78,South,183,21.0,-999.0,21,-99.99,,,0.00,weatherlink.com 1.10,2013-06-05 01:48:00,
2013-06-04 19:03:00,81.1,39.0,29.80,South,180,13.0,-999.0,22,-99.99,,,0.00,weatherlink.com 1.10,2013-06-05 02:03:00,
2013-06-04 19:18:00,80.1,39.0,29.79,SW,218,10.0,-999.0,23,-99.99,,,0.00,weatherlink.com 1.10,2013-06-05 02:18:00,
2013-06-04 19:33:00,78.3,43.0,29.80,SW,215,12.0,-999.0,28,-99.99,,,0.00,weatherlink.com 1.10,2013-06-05 02:33:00,
2013-06-04 19:48:00,76.8,43.0,29.81,South,190,13.0,-999.0,30,-99.99,,,0.00,weatherlink.com 1.10,2013-06-05 02:48:00,
2013-06-04 20:03:00,75.3,43.0,29.81,SW,217,13.0,-999.0,31,-99.99,,,0.00,weatherlink.com 1.10,2013-06-05 03:03:00,
2013-06-04 20:18:00,74.0,45.0,29.80,South,179,14.0,-999.0,35,-99.99,,,0.00,weatherlink.com 1.10,2013-06-05 03:18:00,
2013-06-04 20:33:00,73.0,47.0,29.81,South,182,8.0,-999.0,39,-99.99,,,0.00,weatherlink.com 1.10,2013-06-05 03:33:00,
2013-06-04 20:48:00,72.1,46.0,29.82,SW,230,8.0,-999.0,40,-99.99,,,0.00,weatherlink.com 1.10,2013-06-05 03:48:00,
2013-06-04 21:03:00,71.6,47.0,29.82,South,186,7.0,-999.0,42,-99.99,,,0.00,weatherlink.com 1.10,2013-06-05 04:03:00,
2013-06-04 21:18:00,70.8,47.0,29.82,South,185,5.0,-999.0,43,-99.99,,,0.00,weatherlink.com 1.10,2013-06-05 04:18:00,
2013-06-04 21:34:00,70.8,47.0,29.82,South,187,1.0,-999.0,43,-99.99,,,0.00,weatherlink.com 1.10,2013-06-05 04:34:00,
2013-06-04 21:49:00,71.1,47.0,29.82,SSW,208,1.0,-999.0,43,-99.99,,,0.00,weatherlink.com 1.10,2013-06-05 04:49:00,
2013-06-04 22:04:00,71.5,48.0,29.82,SSW,200,3.0,-999.0,43,-99.99,,,0.00,weatherlink.com 1.10,2013-06-05 05:04:00,
2013-06-04 22:19:00,70.1,48.0,29.82,South,190,0.0,-999.0,45,-99.99,,,0.00,weatherlink.com 1.10,2013-06-05 05:19:00,
2013-06-04 22:34:00,69.3,48.0,29.82,SSW,193,0.0,-999.0,47,-99.99,,,0.00,weatherlink.com 1.10,2013-06-05 05:34:00,
2013-06-04 22:49:00,68.6,48.0,29.82,SSW,193,0.0,-999.0,48,-99.99,,,0.00,weatherlink.com 1.10,2013-06-05 05:49:00,
2013-06-04 23:04:00,68.4,48.0,29.83,SSW,193,0.0,-999.0,49,-99.99,,,0.00,weatherlink.com 1.10,2013-06-05 06:04:00,
2013-06-04 23:19:00,67.9,48.0,29.82,SSW,193,0.0,-999.0,50,-99.99,,,0.00,weatherlink.com 1.10,2013-06-05 06:19:00,
2013-06-04 23:34:00,67.4,48.0,29.82,South,186,0.0,-999.0,51,-99.99,,,0.00,weatherlink.com 1.10,2013-06-05 06:34:00,
2013-06-04 23:49:00,67.1,48.0,29.82,South,173,0.0,-999.0,50,-99.99,,,0.00,weatherlink.com 1.10,2013-06-05 06:49:00,